sensor_id;sensor_type;location;lat;lon;timestamp;temperature;humidity
14008;DHT22;61651;45.508;12.232;2022-11-15T00:02:46;14.00;99.90
14008;DHT22;61651;45.508;12.232;2022-11-15T00:05:48;14.00;99.90
14008;DHT22;61651;45.508;12.232;2022-11-15T00:08:50;14.00;99.90
14008;DHT22;61651;45.508;12.232;2022-11-15T00:11:52;13.90;99.90
14008;DHT22;61651;45.508;12.232;2022-11-15T00:14:56;13.80;99.90
14008;DHT22;61651;45.508;12.232;2022-11-15T00:17:58;13.70;99.90
14008;DHT22;61651;45.508;12.232;2022-11-15T00:21:04;13.70;99.90
14008;DHT22;61651;45.508;12.232;2022-11-15T00:24:07;13.70;99.90
14008;DHT22;61651;45.508;12.232;2022-11-15T00:27:09;13.70;99.90
14008;DHT22;61651;45.508;12.232;2022-11-15T00:30:12;13.70;99.90
14008;DHT22;61651;45.508;12.232;2022-11-15T00:33:15;13.60;99.90
14008;DHT22;61651;45.508;12.232;2022-11-15T00:36:17;13.70;99.90
14008;DHT22;61651;45.508;12.232;2022-11-15T00:39:18;13.70;99.90
14008;DHT22;61651;45.508;12.232;2022-11-15T00:42:20;13.60;99.90
14008;DHT22;61651;45.508;12.232;2022-11-15T00:45:24;13.50;99.90
14008;DHT22;61651;45.508;12.232;2022-11-15T00:48:26;13.50;99.90
14008;DHT22;61651;45.508;12.232;2022-11-15T00:51:28;13.20;99.90
14008;DHT22;61651;45.508;12.232;2022-11-15T00:54:30;13.00;99.90
14008;DHT22;61651;45.508;12.232;2022-11-15T00:57:32;13.00;99.90
14008;DHT22;61651;45.508;12.232;2022-11-15T01:00:36;13.10;99.90
14008;DHT22;61651;45.508;12.232;2022-11-15T01:03:39;13.20;99.90
14008;DHT22;61651;45.508;12.232;2022-11-15T01:06:41;13.20;99.90
14008;DHT22;61651;45.508;12.232;2022-11-15T01:09:43;13.30;99.90
14008;DHT22;61651;45.508;12.232;2022-11-15T01:12:45;13.30;99.90
14008;DHT22;61651;45.508;12.232;2022-11-15T01:15:48;13.20;99.90
14008;DHT22;61651;45.508;12.232;2022-11-15T01:18:50;13.30;99.90
14008;DHT22;61651;45.508;12.232;2022-11-15T01:21:52;13.20;99.90
14008;DHT22;61651;45.508;12.232;2022-11-15T01:24:54;13.20;99.90
14008;DHT22;61651;45.508;12.232;2022-11-15T01:27:56;13.20;99.90
14008;DHT22;61651;45.508;12.232;2022-11-15T01:31:00;13.20;99.90
14008;DHT22;61651;45.508;12.232;2022-11-15T01:34:03;13.10;99.90
14008;DHT22;61651;45.508;12.232;2022-11-15T01:37:05;13.10;99.90
14008;DHT22;61651;45.508;12.232;2022-11-15T01:40:08;13.00;99.90
14008;DHT22;61651;45.508;12.232;2022-11-15T01:43:20;12.90;99.90
14008;DHT22;61651;45.508;12.232;2022-11-15T01:46:28;12.70;99.90
14008;DHT22;61651;45.508;12.232;2022-11-15T01:49:33;12.60;99.90
14008;DHT22;61651;45.508;12.232;2022-11-15T01:52:37;12.50;99.90
14008;DHT22;61651;45.508;12.232;2022-11-15T01:55:41;12.50;99.90
14008;DHT22;61651;45.508;12.232;2022-11-15T01:58:44;12.30;99.90
14008;DHT22;61651;45.508;12.232;2022-11-15T02:01:48;11.90;99.90
14008;DHT22;61651;45.508;12.232;2022-11-15T02:04:50;11.70;99.90
14008;DHT22;61651;45.508;12.232;2022-11-15T02:07:53;11.80;99.90
14008;DHT22;61651;45.508;12.232;2022-11-15T02:10:56;11.90;99.90
14008;DHT22;61651;45.508;12.232;2022-11-15T02:13:59;12.20;99.90
14008;DHT22;61651;45.508;12.232;2022-11-15T02:17:12;12.40;99.90
14008;DHT22;61651;45.508;12.232;2022-11-15T02:20:41;12.30;99.90
14008;DHT22;61651;45.508;12.232;2022-11-15T02:24:16;11.80;99.90
14008;DHT22;61651;45.508;12.232;2022-11-15T02:31:25;11.30;99.90
14008;DHT22;61651;45.508;12.232;2022-11-15T02:34:35;11.30;99.90
14008;DHT22;61651;45.508;12.232;2022-11-15T02:37:45;11.10;99.90
14008;DHT22;61651;45.508;12.232;2022-11-15T02:40:53;11.10;99.90
14008;DHT22;61651;45.508;12.232;2022-11-15T02:44:00;11.00;99.90
14008;DHT22;61651;45.508;12.232;2022-11-15T02:47:08;10.70;99.90
14008;DHT22;61651;45.508;12.232;2022-11-15T02:50:18;10.70;99.90
14008;DHT22;61651;45.508;12.232;2022-11-15T02:53:24;10.50;99.90
14008;DHT22;61651;45.508;12.232;2022-11-15T02:56:26;10.70;99.90
14008;DHT22;61651;45.508;12.232;2022-11-15T03:00:02;11.00;99.90
14008;DHT22;61651;45.508;12.232;2022-11-15T03:06:52;11.70;99.90
14008;DHT22;61651;45.508;12.232;2022-11-15T03:10:00;11.90;99.90
14008;DHT22;61651;45.508;12.232;2022-11-15T03:13:14;12.00;99.90
14008;DHT22;61651;45.508;12.232;2022-11-15T03:16:21;11.90;99.90
14008;DHT22;61651;45.508;12.232;2022-11-15T03:19:31;12.00;99.90
14008;DHT22;61651;45.508;12.232;2022-11-15T03:22:37;12.10;99.90
14008;DHT22;61651;45.508;12.232;2022-11-15T03:25:43;12.10;99.90
14008;DHT22;61651;45.508;12.232;2022-11-15T03:28:49;12.20;99.90
14008;DHT22;61651;45.508;12.232;2022-11-15T03:31:57;12.20;99.90
14008;DHT22;61651;45.508;12.232;2022-11-15T03:35:04;12.20;99.90
14008;DHT22;61651;45.508;12.232;2022-11-15T03:38:14;12.10;99.90
14008;DHT22;61651;45.508;12.232;2022-11-15T03:41:21;12.10;99.90
14008;DHT22;61651;45.508;12.232;2022-11-15T03:44:34;12.20;99.90
14008;DHT22;61651;45.508;12.232;2022-11-15T03:47:41;12.00;99.90
14008;DHT22;61651;45.508;12.232;2022-11-15T03:50:47;12.00;99.90
14008;DHT22;61651;45.508;12.232;2022-11-15T03:53:50;12.00;99.90
14008;DHT22;61651;45.508;12.232;2022-11-15T03:56:52;12.00;99.90
14008;DHT22;61651;45.508;12.232;2022-11-15T03:59:54;12.00;99.90
14008;DHT22;61651;45.508;12.232;2022-11-15T04:02:56;12.00;99.90
14008;DHT22;61651;45.508;12.232;2022-11-15T04:05:59;12.00;99.90
14008;DHT22;61651;45.508;12.232;2022-11-15T04:09:01;12.00;99.90
14008;DHT22;61651;45.508;12.232;2022-11-15T04:12:04;12.00;99.90
14008;DHT22;61651;45.508;12.232;2022-11-15T04:15:08;11.60;99.90
14008;DHT22;61651;45.508;12.232;2022-11-15T04:18:10;11.10;99.90
14008;DHT22;61651;45.508;12.232;2022-11-15T04:21:14;11.10;99.90
14008;DHT22;61651;45.508;12.232;2022-11-15T04:24:33;10.70;99.90
14008;DHT22;61651;45.508;12.232;2022-11-15T04:27:35;10.70;99.90
14008;DHT22;61651;45.508;12.232;2022-11-15T04:30:37;10.80;99.90
14008;DHT22;61651;45.508;12.232;2022-11-15T04:33:39;11.00;99.90
14008;DHT22;61651;45.508;12.232;2022-11-15T04:36:43;11.20;99.90
14008;DHT22;61651;45.508;12.232;2022-11-15T04:40:03;11.40;99.90
14008;DHT22;61651;45.508;12.232;2022-11-15T04:43:05;11.60;99.90
14008;DHT22;61651;45.508;12.232;2022-11-15T04:46:07;11.40;99.90
14008;DHT22;61651;45.508;12.232;2022-11-15T04:49:09;11.30;99.90
14008;DHT22;61651;45.508;12.232;2022-11-15T04:52:12;11.10;99.90
14008;DHT22;61651;45.508;12.232;2022-11-15T04:55:14;11.10;99.90
14008;DHT22;61651;45.508;12.232;2022-11-15T04:58:16;11.30;99.90
14008;DHT22;61651;45.508;12.232;2022-11-15T05:01:18;11.10;99.90
14008;DHT22;61651;45.508;12.232;2022-11-15T05:04:20;11.10;99.90
14008;DHT22;61651;45.508;12.232;2022-11-15T05:07:23;10.90;99.90
14008;DHT22;61651;45.508;12.232;2022-11-15T05:10:25;10.70;99.90
14008;DHT22;61651;45.508;12.232;2022-11-15T05:13:27;10.70;99.90
14008;DHT22;61651;45.508;12.232;2022-11-15T05:16:29;11.00;99.90
14008;DHT22;61651;45.508;12.232;2022-11-15T05:19:31;11.20;99.90
14008;DHT22;61651;45.508;12.232;2022-11-15T05:22:34;11.30;99.90
14008;DHT22;61651;45.508;12.232;2022-11-15T05:25:36;11.50;99.90
14008;DHT22;61651;45.508;12.232;2022-11-15T05:28:39;11.60;99.90
14008;DHT22;61651;45.508;12.232;2022-11-15T05:31:41;11.60;99.90
14008;DHT22;61651;45.508;12.232;2022-11-15T05:34:43;11.60;99.90
14008;DHT22;61651;45.508;12.232;2022-11-15T05:37:47;11.30;99.90
14008;DHT22;61651;45.508;12.232;2022-11-15T05:40:49;11.30;99.90
14008;DHT22;61651;45.508;12.232;2022-11-15T05:43:51;11.40;99.90
14008;DHT22;61651;45.508;12.232;2022-11-15T05:46:55;11.50;99.90
14008;DHT22;61651;45.508;12.232;2022-11-15T05:49:58;11.50;99.90
14008;DHT22;61651;45.508;12.232;2022-11-15T05:53:01;11.50;99.90
14008;DHT22;61651;45.508;12.232;2022-11-15T05:56:04;11.50;99.90
14008;DHT22;61651;45.508;12.232;2022-11-15T05:59:08;11.20;99.90
14008;DHT22;61651;45.508;12.232;2022-11-15T06:02:10;10.60;99.90
14008;DHT22;61651;45.508;12.232;2022-11-15T06:05:12;10.40;99.90
14008;DHT22;61651;45.508;12.232;2022-11-15T06:08:16;10.10;99.90
14008;DHT22;61651;45.508;12.232;2022-11-15T06:11:31;9.90;99.90
14008;DHT22;61651;45.508;12.232;2022-11-15T06:14:35;10.10;99.90
14008;DHT22;61651;45.508;12.232;2022-11-15T06:17:41;10.20;99.90
14008;DHT22;61651;45.508;12.232;2022-11-15T06:20:44;9.90;99.90
14008;DHT22;61651;45.508;12.232;2022-11-15T06:23:48;9.70;99.90
14008;DHT22;61651;45.508;12.232;2022-11-15T06:26:50;9.50;99.90
14008;DHT22;61651;45.508;12.232;2022-11-15T06:29:52;9.90;99.90
14008;DHT22;61651;45.508;12.232;2022-11-15T06:32:59;10.10;99.90
14008;DHT22;61651;45.508;12.232;2022-11-15T06:36:02;10.10;99.90
14008;DHT22;61651;45.508;12.232;2022-11-15T06:39:22;9.80;99.90
14008;DHT22;61651;45.508;12.232;2022-11-15T06:43:09;9.90;99.90
14008;DHT22;61651;45.508;12.232;2022-11-15T06:46:11;10.30;99.90
14008;DHT22;61651;45.508;12.232;2022-11-15T06:49:13;10.50;99.90
14008;DHT22;61651;45.508;12.232;2022-11-15T06:52:15;10.70;99.90
14008;DHT22;61651;45.508;12.232;2022-11-15T06:55:20;10.40;99.90
14008;DHT22;61651;45.508;12.232;2022-11-15T06:58:23;10.40;99.90
14008;DHT22;61651;45.508;12.232;2022-11-15T07:01:25;9.50;99.90
14008;DHT22;61651;45.508;12.232;2022-11-15T07:04:29;8.90;99.90
14008;DHT22;61651;45.508;12.232;2022-11-15T07:07:31;8.80;99.90
14008;DHT22;61651;45.508;12.232;2022-11-15T07:10:35;8.70;99.90
14008;DHT22;61651;45.508;12.232;2022-11-15T07:13:37;8.60;99.90
14008;DHT22;61651;45.508;12.232;2022-11-15T07:16:40;8.30;99.90
14008;DHT22;61651;45.508;12.232;2022-11-15T07:19:42;8.50;99.90
14008;DHT22;61651;45.508;12.232;2022-11-15T07:22:44;8.40;99.90
14008;DHT22;61651;45.508;12.232;2022-11-15T07:26:01;8.70;99.90
14008;DHT22;61651;45.508;12.232;2022-11-15T07:29:05;9.00;99.90
14008;DHT22;61651;45.508;12.232;2022-11-15T07:32:07;9.10;99.90
14008;DHT22;61651;45.508;12.232;2022-11-15T07:35:11;9.30;99.90
14008;DHT22;61651;45.508;12.232;2022-11-15T07:38:13;9.20;99.90
14008;DHT22;61651;45.508;12.232;2022-11-15T07:41:17;9.00;99.90
14008;DHT22;61651;45.508;12.232;2022-11-15T07:44:19;9.20;99.90
14008;DHT22;61651;45.508;12.232;2022-11-15T07:47:21;9.40;99.90
14008;DHT22;61651;45.508;12.232;2022-11-15T07:50:24;9.20;99.90
14008;DHT22;61651;45.508;12.232;2022-11-15T07:53:26;9.60;99.90
14008;DHT22;61651;45.508;12.232;2022-11-15T07:56:29;9.70;99.90
14008;DHT22;61651;45.508;12.232;2022-11-15T07:59:31;10.00;99.90
14008;DHT22;61651;45.508;12.232;2022-11-15T08:02:33;10.00;99.90
14008;DHT22;61651;45.508;12.232;2022-11-15T08:05:36;9.80;99.90
14008;DHT22;61651;45.508;12.232;2022-11-15T08:08:38;9.50;99.90
14008;DHT22;61651;45.508;12.232;2022-11-15T08:11:42;9.30;99.90
14008;DHT22;61651;45.508;12.232;2022-11-15T08:14:44;9.20;99.90
14008;DHT22;61651;45.508;12.232;2022-11-15T08:17:46;9.10;99.90
14008;DHT22;61651;45.508;12.232;2022-11-15T08:20:48;9.10;99.90
14008;DHT22;61651;45.508;12.232;2022-11-15T08:23:50;9.40;99.90
14008;DHT22;61651;45.508;12.232;2022-11-15T08:26:53;9.40;99.90
14008;DHT22;61651;45.508;12.232;2022-11-15T08:29:55;9.60;99.90
14008;DHT22;61651;45.508;12.232;2022-11-15T08:32:58;9.70;99.90
14008;DHT22;61651;45.508;12.232;2022-11-15T08:36:00;9.70;99.90
14008;DHT22;61651;45.508;12.232;2022-11-15T08:39:02;9.80;99.90
14008;DHT22;61651;45.508;12.232;2022-11-15T08:42:06;9.80;99.90
14008;DHT22;61651;45.508;12.232;2022-11-15T08:45:09;9.70;99.90
14008;DHT22;61651;45.508;12.232;2022-11-15T08:48:12;9.70;99.90
14008;DHT22;61651;45.508;12.232;2022-11-15T08:51:13;9.90;99.90
14008;DHT22;61651;45.508;12.232;2022-11-15T08:54:15;9.90;99.90
14008;DHT22;61651;45.508;12.232;2022-11-15T08:57:19;9.50;99.90
14008;DHT22;61651;45.508;12.232;2022-11-15T09:00:21;9.40;99.90
14008;DHT22;61651;45.508;12.232;2022-11-15T09:03:24;9.70;99.90
14008;DHT22;61651;45.508;12.232;2022-11-15T09:06:26;9.80;99.90
14008;DHT22;61651;45.508;12.232;2022-11-15T09:09:28;10.20;99.90
14008;DHT22;61651;45.508;12.232;2022-11-15T09:12:32;10.70;99.90
14008;DHT22;61651;45.508;12.232;2022-11-15T09:15:34;10.90;99.90
14008;DHT22;61651;45.508;12.232;2022-11-15T09:18:37;11.10;99.90
14008;DHT22;61651;45.508;12.232;2022-11-15T09:21:39;11.30;99.90
14008;DHT22;61651;45.508;12.232;2022-11-15T09:24:41;11.40;99.90
14008;DHT22;61651;45.508;12.232;2022-11-15T09:27:44;11.60;99.90
14008;DHT22;61651;45.508;12.232;2022-11-15T09:30:46;11.60;99.90
14008;DHT22;61651;45.508;12.232;2022-11-15T09:33:48;11.50;99.90
14008;DHT22;61651;45.508;12.232;2022-11-15T09:36:50;11.40;99.90
14008;DHT22;61651;45.508;12.232;2022-11-15T09:39:53;11.40;99.90
14008;DHT22;61651;45.508;12.232;2022-11-15T09:43:09;11.70;99.90
14008;DHT22;61651;45.508;12.232;2022-11-15T09:46:22;11.90;99.90
14008;DHT22;61651;45.508;12.232;2022-11-15T09:49:26;11.80;99.90
14008;DHT22;61651;45.508;12.232;2022-11-15T09:52:30;11.90;99.90
14008;DHT22;61651;45.508;12.232;2022-11-15T09:55:39;11.80;99.90
14008;DHT22;61651;45.508;12.232;2022-11-15T09:58:52;11.70;99.90
14008;DHT22;61651;45.508;12.232;2022-11-15T10:02:01;11.90;99.90
14008;DHT22;61651;45.508;12.232;2022-11-15T10:05:06;12.00;99.90
14008;DHT22;61651;45.508;12.232;2022-11-15T10:08:31;11.70;99.90
14008;DHT22;61651;45.508;12.232;2022-11-15T10:11:37;11.40;99.90
14008;DHT22;61651;45.508;12.232;2022-11-15T10:14:41;11.30;99.90
14008;DHT22;61651;45.508;12.232;2022-11-15T10:21:35;11.40;99.90
14008;DHT22;61651;45.508;12.232;2022-11-15T10:24:42;11.40;99.90
14008;DHT22;61651;45.508;12.232;2022-11-15T10:27:47;11.70;99.90
14008;DHT22;61651;45.508;12.232;2022-11-15T10:30:55;12.00;99.90
14008;DHT22;61651;45.508;12.232;2022-11-15T10:34:11;12.00;99.90
14008;DHT22;61651;45.508;12.232;2022-11-15T10:37:14;12.20;99.90
14008;DHT22;61651;45.508;12.232;2022-11-15T10:40:18;11.90;99.90
14008;DHT22;61651;45.508;12.232;2022-11-15T10:43:21;11.50;99.90
14008;DHT22;61651;45.508;12.232;2022-11-15T10:46:28;11.70;99.90
14008;DHT22;61651;45.508;12.232;2022-11-15T10:49:31;12.00;99.90
14008;DHT22;61651;45.508;12.232;2022-11-15T10:52:35;12.00;99.90
14008;DHT22;61651;45.508;12.232;2022-11-15T10:55:40;12.30;99.90
14008;DHT22;61651;45.508;12.232;2022-11-15T10:58:52;12.10;99.90
14008;DHT22;61651;45.508;12.232;2022-11-15T11:01:56;12.10;99.90
14008;DHT22;61651;45.508;12.232;2022-11-15T11:04:59;12.30;99.90
14008;DHT22;61651;45.508;12.232;2022-11-15T11:08:04;12.50;99.90
14008;DHT22;61651;45.508;12.232;2022-11-15T11:11:07;12.70;99.90
14008;DHT22;61651;45.508;12.232;2022-11-15T11:14:12;12.30;99.90
14008;DHT22;61651;45.508;12.232;2022-11-15T11:17:21;12.10;99.90
14008;DHT22;61651;45.508;12.232;2022-11-15T11:20:30;12.10;99.90
14008;DHT22;61651;45.508;12.232;2022-11-15T11:23:45;12.20;99.90
14008;DHT22;61651;45.508;12.232;2022-11-15T11:26:59;12.20;99.90
14008;DHT22;61651;45.508;12.232;2022-11-15T11:30:09;12.20;99.90
14008;DHT22;61651;45.508;12.232;2022-11-15T11:33:17;12.30;99.90
14008;DHT22;61651;45.508;12.232;2022-11-15T11:36:25;12.50;99.90
14008;DHT22;61651;45.508;12.232;2022-11-15T11:39:36;12.90;99.90
14008;DHT22;61651;45.508;12.232;2022-11-15T11:42:49;13.00;99.90
14008;DHT22;61651;45.508;12.232;2022-11-15T11:46:13;13.00;99.90
14008;DHT22;61651;45.508;12.232;2022-11-15T11:49:23;13.10;99.90
14008;DHT22;61651;45.508;12.232;2022-11-15T11:52:31;13.10;99.90
14008;DHT22;61651;45.508;12.232;2022-11-15T11:55:37;13.00;99.90
14008;DHT22;61651;45.508;12.232;2022-11-15T11:58:43;13.40;99.90
14008;DHT22;61651;45.508;12.232;2022-11-15T12:01:46;13.60;99.90
14008;DHT22;61651;45.508;12.232;2022-11-15T12:04:52;13.40;99.90
14008;DHT22;61651;45.508;12.232;2022-11-15T12:08:02;13.50;99.90
14008;DHT22;61651;45.508;12.232;2022-11-15T12:11:13;13.80;99.90
14008;DHT22;61651;45.508;12.232;2022-11-15T12:14:27;13.60;99.90
14008;DHT22;61651;45.508;12.232;2022-11-15T12:17:32;13.10;99.90
14008;DHT22;61651;45.508;12.232;2022-11-15T12:20:38;13.10;99.90
14008;DHT22;61651;45.508;12.232;2022-11-15T12:23:45;12.90;99.90
14008;DHT22;61651;45.508;12.232;2022-11-15T12:26:52;12.70;99.90
14008;DHT22;61651;45.508;12.232;2022-11-15T12:29:58;13.10;99.90
14008;DHT22;61651;45.508;12.232;2022-11-15T12:33:01;13.30;99.90
14008;DHT22;61651;45.508;12.232;2022-11-15T12:36:10;13.60;99.90
14008;DHT22;61651;45.508;12.232;2022-11-15T12:39:13;13.50;99.90
14008;DHT22;61651;45.508;12.232;2022-11-15T12:42:35;13.50;99.90
14008;DHT22;61651;45.508;12.232;2022-11-15T12:45:39;13.50;99.90
14008;DHT22;61651;45.508;12.232;2022-11-15T12:49:00;13.50;99.90
14008;DHT22;61651;45.508;12.232;2022-11-15T12:52:07;13.50;99.90
14008;DHT22;61651;45.508;12.232;2022-11-15T12:55:30;13.60;99.90
14008;DHT22;61651;45.508;12.232;2022-11-15T12:58:42;13.70;99.90
14008;DHT22;61651;45.508;12.232;2022-11-15T13:01:58;13.70;99.90
14008;DHT22;61651;45.508;12.232;2022-11-15T13:08:50;14.00;99.90
14008;DHT22;61651;45.508;12.232;2022-11-15T13:11:52;13.90;99.90
14008;DHT22;61651;45.508;12.232;2022-11-15T13:14:55;13.90;99.90
14008;DHT22;61651;45.508;12.232;2022-11-15T13:17:58;14.00;99.90
14008;DHT22;61651;45.508;12.232;2022-11-15T13:21:03;14.00;99.90
14008;DHT22;61651;45.508;12.232;2022-11-15T13:24:29;14.00;99.90
14008;DHT22;61651;45.508;12.232;2022-11-15T13:27:31;14.00;99.90
14008;DHT22;61651;45.508;12.232;2022-11-15T13:30:34;14.00;99.90
14008;DHT22;61651;45.508;12.232;2022-11-15T13:33:37;14.10;99.90
14008;DHT22;61651;45.508;12.232;2022-11-15T13:36:41;13.80;99.90
14008;DHT22;61651;45.508;12.232;2022-11-15T13:39:44;13.70;99.90
14008;DHT22;61651;45.508;12.232;2022-11-15T13:42:46;13.70;99.90
14008;DHT22;61651;45.508;12.232;2022-11-15T13:46:07;13.80;99.90
14008;DHT22;61651;45.508;12.232;2022-11-15T13:49:10;14.00;99.90
14008;DHT22;61651;45.508;12.232;2022-11-15T13:52:14;14.30;99.90
14008;DHT22;61651;45.508;12.232;2022-11-15T13:55:20;14.40;99.90
14008;DHT22;61651;45.508;12.232;2022-11-15T13:58:23;14.50;99.90
14008;DHT22;61651;45.508;12.232;2022-11-15T14:01:27;14.50;99.90
14008;DHT22;61651;45.508;12.232;2022-11-15T14:04:35;14.50;99.90
14008;DHT22;61651;45.508;12.232;2022-11-15T14:07:37;14.60;99.90
14008;DHT22;61651;45.508;12.232;2022-11-15T14:10:41;14.70;99.90
14008;DHT22;61651;45.508;12.232;2022-11-15T14:14:13;14.60;99.90
14008;DHT22;61651;45.508;12.232;2022-11-15T14:17:38;14.60;99.90
14008;DHT22;61651;45.508;12.232;2022-11-15T14:20:43;14.60;99.90
14008;DHT22;61651;45.508;12.232;2022-11-15T14:23:45;14.60;99.90
14008;DHT22;61651;45.508;12.232;2022-11-15T14:26:49;14.70;99.90
14008;DHT22;61651;45.508;12.232;2022-11-15T14:29:51;14.70;99.90
14008;DHT22;61651;45.508;12.232;2022-11-15T14:32:53;14.70;99.90
14008;DHT22;61651;45.508;12.232;2022-11-15T14:35:56;14.70;99.90
14008;DHT22;61651;45.508;12.232;2022-11-15T14:38:58;14.50;99.90
14008;DHT22;61651;45.508;12.232;2022-11-15T14:42:05;14.00;99.90
14008;DHT22;61651;45.508;12.232;2022-11-15T14:45:12;13.80;99.90
14008;DHT22;61651;45.508;12.232;2022-11-15T14:48:15;13.50;99.90
14008;DHT22;61651;45.508;12.232;2022-11-15T14:51:18;13.30;99.90
14008;DHT22;61651;45.508;12.232;2022-11-15T14:54:20;13.30;99.90
14008;DHT22;61651;45.508;12.232;2022-11-15T14:57:24;13.40;99.90
14008;DHT22;61651;45.508;12.232;2022-11-15T15:00:26;13.40;99.90
14008;DHT22;61651;45.508;12.232;2022-11-15T15:03:28;13.40;99.90
14008;DHT22;61651;45.508;12.232;2022-11-15T15:06:30;13.30;99.90
14008;DHT22;61651;45.508;12.232;2022-11-15T15:09:32;13.40;99.90
14008;DHT22;61651;45.508;12.232;2022-11-15T15:12:36;13.30;99.90
14008;DHT22;61651;45.508;12.232;2022-11-15T15:15:39;13.40;99.90
14008;DHT22;61651;45.508;12.232;2022-11-15T15:18:41;13.50;99.90
14008;DHT22;61651;45.508;12.232;2022-11-15T15:21:43;13.60;99.90
14008;DHT22;61651;45.508;12.232;2022-11-15T15:24:46;13.60;99.90
14008;DHT22;61651;45.508;12.232;2022-11-15T15:27:49;13.60;99.90
14008;DHT22;61651;45.508;12.232;2022-11-15T15:30:51;13.50;99.90
14008;DHT22;61651;45.508;12.232;2022-11-15T15:33:53;13.50;99.90
14008;DHT22;61651;45.508;12.232;2022-11-15T15:37:09;13.70;99.90
14008;DHT22;61651;45.508;12.232;2022-11-15T15:40:21;13.70;99.90
14008;DHT22;61651;45.508;12.232;2022-11-15T15:43:25;13.80;99.90
14008;DHT22;61651;45.508;12.232;2022-11-15T15:46:27;13.50;99.90
14008;DHT22;61651;45.508;12.232;2022-11-15T15:49:29;13.30;99.90
14008;DHT22;61651;45.508;12.232;2022-11-15T15:52:31;13.20;99.90
14008;DHT22;61651;45.508;12.232;2022-11-15T15:55:33;13.10;99.90
14008;DHT22;61651;45.508;12.232;2022-11-15T15:58:37;13.00;99.90
14008;DHT22;61651;45.508;12.232;2022-11-15T16:01:39;13.20;99.90
14008;DHT22;61651;45.508;12.232;2022-11-15T16:04:42;13.40;99.90
14008;DHT22;61651;45.508;12.232;2022-11-15T16:07:44;13.30;99.90
14008;DHT22;61651;45.508;12.232;2022-11-15T16:10:47;13.20;99.90
14008;DHT22;61651;45.508;12.232;2022-11-15T16:13:51;13.30;99.90
14008;DHT22;61651;45.508;12.232;2022-11-15T16:16:54;13.40;99.90
14008;DHT22;61651;45.508;12.232;2022-11-15T16:19:56;13.40;99.90
14008;DHT22;61651;45.508;12.232;2022-11-15T16:22:59;13.20;99.90
14008;DHT22;61651;45.508;12.232;2022-11-15T16:26:01;13.20;99.90
14008;DHT22;61651;45.508;12.232;2022-11-15T16:29:05;13.40;99.90
14008;DHT22;61651;45.508;12.232;2022-11-15T16:32:09;13.50;99.90
14008;DHT22;61651;45.508;12.232;2022-11-15T16:35:12;13.50;99.90
14008;DHT22;61651;45.508;12.232;2022-11-15T16:38:15;13.40;99.90
14008;DHT22;61651;45.508;12.232;2022-11-15T16:41:17;13.40;99.90
14008;DHT22;61651;45.508;12.232;2022-11-15T16:44:21;13.20;99.90
14008;DHT22;61651;45.508;12.232;2022-11-15T16:47:23;13.00;99.90
14008;DHT22;61651;45.508;12.232;2022-11-15T16:50:26;12.90;99.90
14008;DHT22;61651;45.508;12.232;2022-11-15T16:53:28;12.80;99.90
14008;DHT22;61651;45.508;12.232;2022-11-15T16:56:30;12.80;99.90
14008;DHT22;61651;45.508;12.232;2022-11-15T16:59:34;12.90;99.90
14008;DHT22;61651;45.508;12.232;2022-11-15T17:02:36;13.00;99.90
14008;DHT22;61651;45.508;12.232;2022-11-15T17:05:38;13.10;99.90
14008;DHT22;61651;45.508;12.232;2022-11-15T17:08:40;13.00;99.90
14008;DHT22;61651;45.508;12.232;2022-11-15T17:11:42;12.80;99.90
14008;DHT22;61651;45.508;12.232;2022-11-15T17:14:46;12.60;99.90
14008;DHT22;61651;45.508;12.232;2022-11-15T17:17:51;12.60;99.90
14008;DHT22;61651;45.508;12.232;2022-11-15T17:20:53;12.60;99.90
14008;DHT22;61651;45.508;12.232;2022-11-15T17:23:55;12.70;99.90
14008;DHT22;61651;45.508;12.232;2022-11-15T17:26:59;12.70;99.90
14008;DHT22;61651;45.508;12.232;2022-11-15T17:30:04;12.80;99.90
14008;DHT22;61651;45.508;12.232;2022-11-15T17:33:06;12.70;99.90
14008;DHT22;61651;45.508;12.232;2022-11-15T17:36:10;12.60;99.90
14008;DHT22;61651;45.508;12.232;2022-11-15T17:39:13;12.70;99.90
14008;DHT22;61651;45.508;12.232;2022-11-15T17:42:15;12.70;99.90
14008;DHT22;61651;45.508;12.232;2022-11-15T17:45:18;12.80;99.90
14008;DHT22;61651;45.508;12.232;2022-11-15T17:48:20;12.70;99.90
14008;DHT22;61651;45.508;12.232;2022-11-15T17:51:22;12.60;99.90
14008;DHT22;61651;45.508;12.232;2022-11-15T17:54:24;12.50;99.90
14008;DHT22;61651;45.508;12.232;2022-11-15T17:57:26;12.60;99.90
14008;DHT22;61651;45.508;12.232;2022-11-15T18:00:29;12.80;99.90
14008;DHT22;61651;45.508;12.232;2022-11-15T18:03:33;12.90;99.90
14008;DHT22;61651;45.508;12.232;2022-11-15T18:06:35;12.90;99.90
14008;DHT22;61651;45.508;12.232;2022-11-15T18:09:37;12.90;99.90
14008;DHT22;61651;45.508;12.232;2022-11-15T18:12:41;13.10;99.90
14008;DHT22;61651;45.508;12.232;2022-11-15T18:15:53;13.30;99.90
14008;DHT22;61651;45.508;12.232;2022-11-15T18:18:56;13.50;99.90
14008;DHT22;61651;45.508;12.232;2022-11-15T18:22:00;13.60;99.90
14008;DHT22;61651;45.508;12.232;2022-11-15T18:25:05;13.80;99.90
14008;DHT22;61651;45.508;12.232;2022-11-15T18:28:07;13.80;99.90
14008;DHT22;61651;45.508;12.232;2022-11-15T18:31:13;13.80;99.90
14008;DHT22;61651;45.508;12.232;2022-11-15T18:34:16;13.80;99.90
14008;DHT22;61651;45.508;12.232;2022-11-15T18:37:18;13.80;99.90
14008;DHT22;61651;45.508;12.232;2022-11-15T18:40:20;13.90;99.90
14008;DHT22;61651;45.508;12.232;2022-11-15T18:43:22;13.90;99.90
14008;DHT22;61651;45.508;12.232;2022-11-15T18:46:27;13.90;99.90
14008;DHT22;61651;45.508;12.232;2022-11-15T18:49:30;13.90;99.90
14008;DHT22;61651;45.508;12.232;2022-11-15T18:52:32;13.90;99.90
14008;DHT22;61651;45.508;12.232;2022-11-15T18:55:34;13.90;99.90
14008;DHT22;61651;45.508;12.232;2022-11-15T18:58:37;13.90;99.90
14008;DHT22;61651;45.508;12.232;2022-11-15T19:01:42;13.80;99.90
14008;DHT22;61651;45.508;12.232;2022-11-15T19:04:46;13.80;99.90
14008;DHT22;61651;45.508;12.232;2022-11-15T19:07:48;13.80;99.90
14008;DHT22;61651;45.508;12.232;2022-11-15T19:10:50;13.70;99.90
14008;DHT22;61651;45.508;12.232;2022-11-15T19:13:53;13.60;99.90
14008;DHT22;61651;45.508;12.232;2022-11-15T19:16:57;13.60;99.90
14008;DHT22;61651;45.508;12.232;2022-11-15T19:19:59;13.60;99.90
14008;DHT22;61651;45.508;12.232;2022-11-15T19:23:01;13.70;99.90
14008;DHT22;61651;45.508;12.232;2022-11-15T19:26:05;13.60;99.90
14008;DHT22;61651;45.508;12.232;2022-11-15T19:29:08;13.60;99.90